createdAt,value
2022-08-17T04:52:48.413Z,51.50
2022-08-17T04:55:22.949Z,52.20
2022-08-17T04:57:56.818Z,52.10
2022-08-17T05:00:30.841Z,52.30
2022-08-17T05:03:05.161Z,52.60
2022-08-17T05:05:43.258Z,52.70
2022-08-17T05:08:20.890Z,52.80
2022-08-17T05:10:54.678Z,53.10
2022-08-17T05:13:30.592Z,53.90
2022-08-17T05:16:07.388Z,53.60
2022-08-17T05:18:41.352Z,53.60
2022-08-17T05:21:16.218Z,53.80
2022-08-17T05:23:54.682Z,54.10
2022-08-17T05:26:29.560Z,54.40
2022-08-17T05:29:03.340Z,54.20
2022-08-17T05:31:37.296Z,54.50
2022-08-17T05:34:11.617Z,54.70
2022-08-17T05:36:45.241Z,54.90
2022-08-17T05:39:21.042Z,55.20
2022-08-17T05:41:56.028Z,55.50
2022-08-17T05:44:29.479Z,55.60
2022-08-17T05:47:03.982Z,55.70
2022-08-17T05:49:38.089Z,56.00
2022-08-17T05:52:26.229Z,56.00
2022-08-17T05:55:16.959Z,56.60
2022-08-17T05:58:10.463Z,56.80
2022-08-17T06:00:57.374Z,56.30
2022-08-17T06:03:50.958Z,56.00
2022-08-17T06:06:39.961Z,56.00
2022-08-17T06:09:35.240Z,55.30
2022-08-17T06:12:41.701Z,55.00
2022-08-17T06:15:41.828Z,55.20
2022-08-17T06:18:19.149Z,54.50
2022-08-17T06:20:58.791Z,54.10
2022-08-17T06:23:38.019Z,54.10
2022-08-17T06:26:20.400Z,53.90
2022-08-17T06:29:01.072Z,53.70
2022-08-17T06:31:38.452Z,53.40
2022-08-17T18:52:51.462Z,50.50
2022-08-17T18:55:28.995Z,51.30
2022-08-17T18:58:17.600Z,51.60
2022-08-17T19:00:52.572Z,51.70
2022-08-17T19:03:28.493Z,51.70
2022-08-17T19:06:23.077Z,51.70
2022-08-17T19:08:58.455Z,52.00
2022-08-17T19:11:35.867Z,51.80
2022-08-17T19:14:16.672Z,51.80
2022-08-17T19:16:56.961Z,51.80
2022-08-17T19:19:39.181Z,51.80
2022-08-17T19:22:28.886Z,51.80
2022-08-17T19:25:16.938Z,51.70
2022-08-17T19:28:00.766Z,51.70
2022-08-17T19:30:37.626Z,51.60
2022-08-17T19:33:15.425Z,51.40
2022-08-17T19:36:05.013Z,51.30
2022-08-17T19:38:54.129Z,51.40
2022-08-17T19:41:42.897Z,51.20
2022-08-17T19:44:47.134Z,51.30
2022-08-17T19:47:53.856Z,51.60
2022-08-17T19:50:39.149Z,51.50
2022-08-17T19:53:36.871Z,51.40
2022-08-17T19:56:32.274Z,51.60
2022-08-17T19:59:17.303Z,51.40
2022-08-17T20:01:58.174Z,51.50
2022-08-17T20:04:43.456Z,51.60
2022-08-17T20:07:23.424Z,51.60
2022-08-17T20:10:08.366Z,51.70
2022-08-17T20:12:45.511Z,51.80
2022-08-17T20:15:29.618Z,51.70
2022-08-17T20:18:13.854Z,52.00
2022-08-17T20:20:59.471Z,52.00
2022-08-17T20:23:53.527Z,52.10
2022-08-17T20:26:55.519Z,52.30
2022-08-17T20:29:55.485Z,52.20
2022-08-17T20:32:35.333Z,52.10
2022-08-17T20:35:26.856Z,52.00
2022-08-17T20:38:03.500Z,52.10
2022-08-17T20:40:40.885Z,52.40
2022-08-17T20:43:46.817Z,52.50
2022-08-17T20:46:44.518Z,52.70
2022-08-17T20:49:41.398Z,52.70
2022-08-17T20:52:37.275Z,53.00
2022-08-17T20:55:52.217Z,52.90
2022-08-17T20:58:48.267Z,52.90
2022-08-17T21:01:39.770Z,53.30
2022-08-17T21:04:48.339Z,53.20
2022-08-17T21:07:30.050Z,53.10
2022-08-17T21:10:18.527Z,53.00
2022-08-17T21:13:02.673Z,53.50
2022-08-17T21:15:46.061Z,53.30
2022-08-17T21:18:34.173Z,53.30
2022-08-17T21:21:25.045Z,53.40
2022-08-17T21:24:26.978Z,53.60
2022-08-17T21:27:21.207Z,53.60
2022-08-17T21:30:22.374Z,53.30
2022-08-17T21:33:24.944Z,53.10
2022-08-17T21:36:24.847Z,53.20
2022-08-17T21:39:08.758Z,53.50
2022-08-17T21:41:52.870Z,53.40
2022-08-17T21:44:36.198Z,53.60
2022-08-17T21:47:24.276Z,53.70
2022-08-17T21:50:18.735Z,53.60
2022-08-17T21:52:55.478Z,53.40
2022-08-17T21:55:33.654Z,53.30
2022-08-17T21:58:28.103Z,53.60
2022-08-17T22:01:21.323Z,53.60
2022-08-17T22:04:05.248Z,53.70
2022-08-17T22:06:52.287Z,53.60
2022-08-17T22:09:36.801Z,53.50
2022-08-17T22:12:16.786Z,53.70
2022-08-17T22:15:01.696Z,53.70
2022-08-17T22:17:38.460Z,53.70
2022-08-17T22:20:15.846Z,53.90
2022-08-17T22:23:29.985Z,54.10
2022-08-17T22:26:11.222Z,54.50
2022-08-17T22:28:50.700Z,54.20
2022-08-17T22:31:27.815Z,54.00
2022-08-17T22:34:16.128Z,54.00
2022-08-17T22:36:49.576Z,54.00
2022-08-17T22:39:42.242Z,54.20
2022-08-17T22:42:17.396Z,54.60
2022-08-17T22:44:54.359Z,54.40
2022-08-17T22:47:38.750Z,54.60
2022-08-17T22:50:23.993Z,54.70
2022-08-17T22:53:20.884Z,54.50
2022-08-17T22:56:26.597Z,54.30
2022-08-17T22:59:19.106Z,54.40
2022-08-17T23:02:23.813Z,54.20
2022-08-17T23:05:22.864Z,54.60
2022-08-17T23:07:56.336Z,54.80
2022-08-17T23:10:30.680Z,54.60
2022-08-17T23:13:04.750Z,54.60
2022-08-17T23:15:40.724Z,54.70
2022-08-17T23:18:14.194Z,54.90
2022-08-17T23:20:49.180Z,54.90
2022-08-17T23:23:23.993Z,54.90
2022-08-17T23:25:57.630Z,55.00
2022-08-17T23:28:31.050Z,55.10
2022-08-17T23:31:06.466Z,55.20
2022-08-17T23:33:42.412Z,55.30
2022-08-17T23:36:18.187Z,55.30
2022-08-17T23:38:53.553Z,55.50
2022-08-17T23:41:36.355Z,55.50
2022-08-17T23:44:09.929Z,55.50
2022-08-17T23:46:44.423Z,55.50
2022-08-17T23:49:18.983Z,55.50
2022-08-17T23:51:55.286Z,55.50
2022-08-17T23:54:43.717Z,55.40
2022-08-17T23:57:33.794Z,55.40
